sensor_id;sensor_type;location;lat;lon;timestamp;pressure;altitude;pressure_sealevel;temperature
33267;BMP180;19638;49.080;11.896;2023-08-01T00:00:11;95483.00;;;17.60
33267;BMP180;19638;49.080;11.896;2023-08-01T00:04:15;95490.00;;;17.60
33267;BMP180;19638;49.080;11.896;2023-08-01T00:08:21;95487.00;;;17.50
33267;BMP180;19638;49.080;11.896;2023-08-01T00:12:24;95479.00;;;17.50
33267;BMP180;19638;49.080;11.896;2023-08-01T00:16:27;95484.00;;;17.50
33267;BMP180;19638;49.080;11.896;2023-08-01T00:20:35;95478.00;;;17.50
33267;BMP180;19638;49.080;11.896;2023-08-01T00:24:42;95471.00;;;17.50
33267;BMP180;19638;49.080;11.896;2023-08-01T00:28:47;95467.00;;;17.50
33267;BMP180;19638;49.080;11.896;2023-08-01T00:32:50;95463.00;;;17.50
33267;BMP180;19638;49.080;11.896;2023-08-01T00:36:56;95445.00;;;17.50
33267;BMP180;19638;49.080;11.896;2023-08-01T00:41:01;95436.00;;;17.50
33267;BMP180;19638;49.080;11.896;2023-08-01T00:45:05;95420.00;;;17.50
33267;BMP180;19638;49.080;11.896;2023-08-01T00:49:10;95411.00;;;17.50
33267;BMP180;19638;49.080;11.896;2023-08-01T00:53:14;95403.00;;;17.60
33267;BMP180;19638;49.080;11.896;2023-08-01T00:57:19;95397.00;;;17.60
33267;BMP180;19638;49.080;11.896;2023-08-01T01:01:25;95396.00;;;17.50
33267;BMP180;19638;49.080;11.896;2023-08-01T01:05:31;95387.00;;;17.60
33267;BMP180;19638;49.080;11.896;2023-08-01T01:09:41;95387.00;;;17.60
33267;BMP180;19638;49.080;11.896;2023-08-01T01:13:46;95380.00;;;17.60
33267;BMP180;19638;49.080;11.896;2023-08-01T01:17:49;95373.00;;;17.50
33267;BMP180;19638;49.080;11.896;2023-08-01T01:21:54;95379.00;;;17.60
33267;BMP180;19638;49.080;11.896;2023-08-01T01:26:16;95368.00;;;17.50
33267;BMP180;19638;49.080;11.896;2023-08-01T01:30:22;95378.00;;;17.60
33267;BMP180;19638;49.080;11.896;2023-08-01T01:34:26;95373.00;;;17.60
33267;BMP180;19638;49.080;11.896;2023-08-01T01:38:33;95368.00;;;17.50
33267;BMP180;19638;49.080;11.896;2023-08-01T01:42:36;95362.00;;;17.50
33267;BMP180;19638;49.080;11.896;2023-08-01T01:46:39;95364.00;;;17.50
33267;BMP180;19638;49.080;11.896;2023-08-01T01:50:44;95350.00;;;17.50
33267;BMP180;19638;49.080;11.896;2023-08-01T01:54:55;95350.00;;;17.50
33267;BMP180;19638;49.080;11.896;2023-08-01T01:59:01;95346.00;;;17.40
33267;BMP180;19638;49.080;11.896;2023-08-01T02:03:05;95337.00;;;17.40
33267;BMP180;19638;49.080;11.896;2023-08-01T02:07:12;95345.00;;;17.40
33267;BMP180;19638;49.080;11.896;2023-08-01T02:11:17;95340.00;;;17.40
33267;BMP180;19638;49.080;11.896;2023-08-01T02:15:24;95337.00;;;17.40
33267;BMP180;19638;49.080;11.896;2023-08-01T02:19:30;95339.00;;;17.40
33267;BMP180;19638;49.080;11.896;2023-08-01T02:23:42;95325.00;;;17.40
33267;BMP180;19638;49.080;11.896;2023-08-01T02:27:54;95303.00;;;17.40
33267;BMP180;19638;49.080;11.896;2023-08-01T02:31:59;95301.00;;;17.40
33267;BMP180;19638;49.080;11.896;2023-08-01T02:36:04;95311.00;;;17.50
33267;BMP180;19638;49.080;11.896;2023-08-01T02:40:10;95316.00;;;17.40
33267;BMP180;19638;49.080;11.896;2023-08-01T02:44:17;95310.00;;;17.50
33267;BMP180;19638;49.080;11.896;2023-08-01T02:48:22;95300.00;;;17.40
33267;BMP180;19638;49.080;11.896;2023-08-01T02:52:25;95293.00;;;17.50
33267;BMP180;19638;49.080;11.896;2023-08-01T02:56:29;95275.00;;;17.50
33267;BMP180;19638;49.080;11.896;2023-08-01T03:00:39;95265.00;;;17.50
33267;BMP180;19638;49.080;11.896;2023-08-01T03:04:48;95261.00;;;17.50
33267;BMP180;19638;49.080;11.896;2023-08-01T03:08:51;95250.00;;;17.50
33267;BMP180;19638;49.080;11.896;2023-08-01T03:12:57;95252.00;;;17.40
33267;BMP180;19638;49.080;11.896;2023-08-01T03:17:02;95259.00;;;17.40
33267;BMP180;19638;49.080;11.896;2023-08-01T03:21:08;95274.00;;;17.40
33267;BMP180;19638;49.080;11.896;2023-08-01T03:25:18;95270.00;;;17.30
33267;BMP180;19638;49.080;11.896;2023-08-01T03:29:21;95271.00;;;17.30
33267;BMP180;19638;49.080;11.896;2023-08-01T03:33:27;95268.00;;;17.40
33267;BMP180;19638;49.080;11.896;2023-08-01T03:37:32;95281.00;;;17.40
33267;BMP180;19638;49.080;11.896;2023-08-01T03:41:35;95280.00;;;17.30
33267;BMP180;19638;49.080;11.896;2023-08-01T03:45:39;95277.00;;;17.30
33267;BMP180;19638;49.080;11.896;2023-08-01T03:49:44;95293.00;;;17.30
33267;BMP180;19638;49.080;11.896;2023-08-01T03:53:50;95285.00;;;17.30
33267;BMP180;19638;49.080;11.896;2023-08-01T03:58:12;95290.00;;;17.20
33267;BMP180;19638;49.080;11.896;2023-08-01T04:02:15;95283.00;;;17.20
33267;BMP180;19638;49.080;11.896;2023-08-01T04:06:21;95276.00;;;17.20
33267;BMP180;19638;49.080;11.896;2023-08-01T04:10:27;95261.00;;;17.20
33267;BMP180;19638;49.080;11.896;2023-08-01T04:14:32;95255.00;;;17.20
33267;BMP180;19638;49.080;11.896;2023-08-01T04:18:38;95241.00;;;17.20
33267;BMP180;19638;49.080;11.896;2023-08-01T04:22:44;95238.00;;;17.10
33267;BMP180;19638;49.080;11.896;2023-08-01T04:26:47;95230.00;;;17.10
33267;BMP180;19638;49.080;11.896;2023-08-01T04:30:55;95226.00;;;17.10
33267;BMP180;19638;49.080;11.896;2023-08-01T04:34:59;95213.00;;;17.00
33267;BMP180;19638;49.080;11.896;2023-08-01T04:39:03;95208.00;;;17.00
33267;BMP180;19638;49.080;11.896;2023-08-01T04:43:08;95202.00;;;17.00
33267;BMP180;19638;49.080;11.896;2023-08-01T04:47:13;95204.00;;;17.10
33267;BMP180;19638;49.080;11.896;2023-08-01T04:51:16;95186.00;;;17.10
33267;BMP180;19638;49.080;11.896;2023-08-01T04:55:23;95176.00;;;17.00
33267;BMP180;19638;49.080;11.896;2023-08-01T04:59:26;95161.00;;;17.00
33267;BMP180;19638;49.080;11.896;2023-08-01T05:03:30;95156.00;;;17.00
33267;BMP180;19638;49.080;11.896;2023-08-01T05:07:35;95167.00;;;17.00
33267;BMP180;19638;49.080;11.896;2023-08-01T05:11:42;95156.00;;;17.00
33267;BMP180;19638;49.080;11.896;2023-08-01T05:15:46;95161.00;;;17.00
33267;BMP180;19638;49.080;11.896;2023-08-01T05:19:49;95159.00;;;17.10
33267;BMP180;19638;49.080;11.896;2023-08-01T05:23:52;95163.00;;;17.00
33267;BMP180;19638;49.080;11.896;2023-08-01T05:27:59;95156.00;;;17.00
33267;BMP180;19638;49.080;11.896;2023-08-01T05:32:03;95160.00;;;17.00
33267;BMP180;19638;49.080;11.896;2023-08-01T05:36:07;95154.00;;;17.00
33267;BMP180;19638;49.080;11.896;2023-08-01T05:40:11;95155.00;;;17.00
33267;BMP180;19638;49.080;11.896;2023-08-01T05:44:17;95157.00;;;17.00
33267;BMP180;19638;49.080;11.896;2023-08-01T05:48:20;95151.00;;;17.10
33267;BMP180;19638;49.080;11.896;2023-08-01T05:52:23;95157.00;;;17.10
33267;BMP180;19638;49.080;11.896;2023-08-01T05:56:28;95153.00;;;17.10
33267;BMP180;19638;49.080;11.896;2023-08-01T06:00:33;95143.00;;;17.10
33267;BMP180;19638;49.080;11.896;2023-08-01T06:04:36;95145.00;;;17.20
33267;BMP180;19638;49.080;11.896;2023-08-01T06:08:44;95125.00;;;17.20
33267;BMP180;19638;49.080;11.896;2023-08-01T06:12:48;95114.00;;;17.30
33267;BMP180;19638;49.080;11.896;2023-08-01T06:16:58;95112.00;;;17.40
33267;BMP180;19638;49.080;11.896;2023-08-01T06:21:03;95108.00;;;17.40
33267;BMP180;19638;49.080;11.896;2023-08-01T06:25:07;95098.00;;;17.40
33267;BMP180;19638;49.080;11.896;2023-08-01T06:29:10;95110.00;;;17.40
33267;BMP180;19638;49.080;11.896;2023-08-01T06:33:16;95119.00;;;17.50
33267;BMP180;19638;49.080;11.896;2023-08-01T06:37:24;95120.00;;;17.50
33267;BMP180;19638;49.080;11.896;2023-08-01T06:41:27;95120.00;;;17.50
33267;BMP180;19638;49.080;11.896;2023-08-01T06:45:30;95115.00;;;17.50
33267;BMP180;19638;49.080;11.896;2023-08-01T06:49:35;95140.00;;;17.60
33267;BMP180;19638;49.080;11.896;2023-08-01T06:53:38;95147.00;;;17.70
33267;BMP180;19638;49.080;11.896;2023-08-01T06:57:42;95136.00;;;17.70
33267;BMP180;19638;49.080;11.896;2023-08-01T07:01:45;95155.00;;;17.80
33267;BMP180;19638;49.080;11.896;2023-08-01T07:05:51;95158.00;;;17.90
33267;BMP180;19638;49.080;11.896;2023-08-01T07:09:55;95170.00;;;18.00
33267;BMP180;19638;49.080;11.896;2023-08-01T07:13:58;95160.00;;;18.10
33267;BMP180;19638;49.080;11.896;2023-08-01T07:18:03;95155.00;;;18.30
33267;BMP180;19638;49.080;11.896;2023-08-01T07:22:07;95156.00;;;18.40
33267;BMP180;19638;49.080;11.896;2023-08-01T07:26:10;95165.00;;;18.60
33267;BMP180;19638;49.080;11.896;2023-08-01T07:30:16;95165.00;;;18.70
33267;BMP180;19638;49.080;11.896;2023-08-01T07:34:19;95168.00;;;18.90
33267;BMP180;19638;49.080;11.896;2023-08-01T07:38:24;95162.00;;;19.10
33267;BMP180;19638;49.080;11.896;2023-08-01T07:42:28;95154.00;;;19.40
33267;BMP180;19638;49.080;11.896;2023-08-01T07:46:33;95168.00;;;19.50
33267;BMP180;19638;49.080;11.896;2023-08-01T07:50:40;95164.00;;;19.60
33267;BMP180;19638;49.080;11.896;2023-08-01T07:54:47;95150.00;;;19.60
33267;BMP180;19638;49.080;11.896;2023-08-01T07:58:50;95157.00;;;19.60
33267;BMP180;19638;49.080;11.896;2023-08-01T08:02:53;95168.00;;;19.40
33267;BMP180;19638;49.080;11.896;2023-08-01T08:06:58;95176.00;;;19.20
33267;BMP180;19638;49.080;11.896;2023-08-01T08:11:03;95181.00;;;19.10
33267;BMP180;19638;49.080;11.896;2023-08-01T08:15:07;95193.00;;;19.00
33267;BMP180;19638;49.080;11.896;2023-08-01T08:19:10;95203.00;;;18.80
33267;BMP180;19638;49.080;11.896;2023-08-01T08:23:13;95189.00;;;18.80
33267;BMP180;19638;49.080;11.896;2023-08-01T08:27:21;95181.00;;;18.90
33267;BMP180;19638;49.080;11.896;2023-08-01T08:31:24;95184.00;;;18.90
33267;BMP180;19638;49.080;11.896;2023-08-01T08:35:28;95184.00;;;18.90
33267;BMP180;19638;49.080;11.896;2023-08-01T08:39:31;95198.00;;;18.90
33267;BMP180;19638;49.080;11.896;2023-08-01T08:43:37;95177.00;;;18.70
33267;BMP180;19638;49.080;11.896;2023-08-01T08:47:42;95186.00;;;18.70
33267;BMP180;19638;49.080;11.896;2023-08-01T08:51:50;95182.00;;;18.70
33267;BMP180;19638;49.080;11.896;2023-08-01T08:55:53;95182.00;;;18.70
33267;BMP180;19638;49.080;11.896;2023-08-01T08:59:58;95169.00;;;18.60
33267;BMP180;19638;49.080;11.896;2023-08-01T09:04:02;95155.00;;;18.60
33267;BMP180;19638;49.080;11.896;2023-08-01T09:08:20;95186.00;;;18.50
33267;BMP180;19638;49.080;11.896;2023-08-01T09:12:26;95196.00;;;18.50
33267;BMP180;19638;49.080;11.896;2023-08-01T09:16:32;95186.00;;;18.50
33267;BMP180;19638;49.080;11.896;2023-08-01T09:20:45;95198.00;;;18.50
33267;BMP180;19638;49.080;11.896;2023-08-01T09:24:52;95194.00;;;18.40
33267;BMP180;19638;49.080;11.896;2023-08-01T09:28:57;95190.00;;;18.40
33267;BMP180;19638;49.080;11.896;2023-08-01T09:33:02;95181.00;;;18.50
33267;BMP180;19638;49.080;11.896;2023-08-01T09:37:05;95156.00;;;18.60
33267;BMP180;19638;49.080;11.896;2023-08-01T09:41:17;95131.00;;;18.70
33267;BMP180;19638;49.080;11.896;2023-08-01T09:45:21;95135.00;;;18.90
33267;BMP180;19638;49.080;11.896;2023-08-01T09:49:26;95148.00;;;18.90
33267;BMP180;19638;49.080;11.896;2023-08-01T09:53:32;95157.00;;;18.80
33267;BMP180;19638;49.080;11.896;2023-08-01T09:57:37;95139.00;;;18.70
33267;BMP180;19638;49.080;11.896;2023-08-01T10:01:44;95149.00;;;18.80
33267;BMP180;19638;49.080;11.896;2023-08-01T10:05:52;95141.00;;;18.90
33267;BMP180;19638;49.080;11.896;2023-08-01T10:09:58;95126.00;;;19.00
33267;BMP180;19638;49.080;11.896;2023-08-01T10:14:03;95150.00;;;18.80
33267;BMP180;19638;49.080;11.896;2023-08-01T10:18:08;95140.00;;;18.70
33267;BMP180;19638;49.080;11.896;2023-08-01T10:22:13;95141.00;;;18.70
33267;BMP180;19638;49.080;11.896;2023-08-01T10:26:22;95149.00;;;18.70
33267;BMP180;19638;49.080;11.896;2023-08-01T10:30:26;95139.00;;;18.50
33267;BMP180;19638;49.080;11.896;2023-08-01T10:34:29;95134.00;;;18.60
33267;BMP180;19638;49.080;11.896;2023-08-01T10:38:44;95131.00;;;18.60
33267;BMP180;19638;49.080;11.896;2023-08-01T10:42:48;95127.00;;;18.70
33267;BMP180;19638;49.080;11.896;2023-08-01T10:46:58;95128.00;;;18.70
33267;BMP180;19638;49.080;11.896;2023-08-01T10:51:01;95138.00;;;18.70
33267;BMP180;19638;49.080;11.896;2023-08-01T10:55:08;95121.00;;;18.70
33267;BMP180;19638;49.080;11.896;2023-08-01T10:59:14;95124.00;;;18.70
33267;BMP180;19638;49.080;11.896;2023-08-01T11:03:18;95115.00;;;18.80
33267;BMP180;19638;49.080;11.896;2023-08-01T11:07:22;95121.00;;;19.20
33267;BMP180;19638;49.080;11.896;2023-08-01T11:11:29;95113.00;;;19.20
33267;BMP180;19638;49.080;11.896;2023-08-01T11:15:32;95105.00;;;19.20
33267;BMP180;19638;49.080;11.896;2023-08-01T11:19:39;95111.00;;;19.20
33267;BMP180;19638;49.080;11.896;2023-08-01T11:23:42;95102.00;;;19.10
33267;BMP180;19638;49.080;11.896;2023-08-01T11:27:48;95101.00;;;18.80
33267;BMP180;19638;49.080;11.896;2023-08-01T11:31:56;95109.00;;;18.60
33267;BMP180;19638;49.080;11.896;2023-08-01T11:36:04;95103.00;;;18.30
33267;BMP180;19638;49.080;11.896;2023-08-01T11:40:08;95119.00;;;18.20
33267;BMP180;19638;49.080;11.896;2023-08-01T11:44:15;95105.00;;;18.20
33267;BMP180;19638;49.080;11.896;2023-08-01T11:48:21;95112.00;;;18.20
33267;BMP180;19638;49.080;11.896;2023-08-01T11:52:26;95112.00;;;18.40
33267;BMP180;19638;49.080;11.896;2023-08-01T11:56:29;95114.00;;;18.70
33267;BMP180;19638;49.080;11.896;2023-08-01T12:00:34;95119.00;;;19.10
33267;BMP180;19638;49.080;11.896;2023-08-01T12:04:38;95117.00;;;19.50
33267;BMP180;19638;49.080;11.896;2023-08-01T12:08:44;95120.00;;;19.40
33267;BMP180;19638;49.080;11.896;2023-08-01T12:12:48;95130.00;;;19.40
33267;BMP180;19638;49.080;11.896;2023-08-01T12:16:57;95131.00;;;19.60
33267;BMP180;19638;49.080;11.896;2023-08-01T12:21:00;95130.00;;;19.70
33267;BMP180;19638;49.080;11.896;2023-08-01T12:25:04;95137.00;;;19.80
33267;BMP180;19638;49.080;11.896;2023-08-01T12:29:07;95125.00;;;19.90
33267;BMP180;19638;49.080;11.896;2023-08-01T12:33:12;95129.00;;;20.10
33267;BMP180;19638;49.080;11.896;2023-08-01T12:37:15;95125.00;;;20.30
33267;BMP180;19638;49.080;11.896;2023-08-01T12:41:18;95117.00;;;20.30
33267;BMP180;19638;49.080;11.896;2023-08-01T12:45:26;95118.00;;;20.40
33267;BMP180;19638;49.080;11.896;2023-08-01T12:49:33;95110.00;;;20.60
33267;BMP180;19638;49.080;11.896;2023-08-01T12:53:37;95131.00;;;21.20
33267;BMP180;19638;49.080;11.896;2023-08-01T12:57:45;95125.00;;;21.60
33267;BMP180;19638;49.080;11.896;2023-08-01T13:01:48;95130.00;;;21.80
33267;BMP180;19638;49.080;11.896;2023-08-01T13:05:55;95133.00;;;21.70
33267;BMP180;19638;49.080;11.896;2023-08-01T13:09:59;95134.00;;;21.90
33267;BMP180;19638;49.080;11.896;2023-08-01T13:14:02;95129.00;;;22.30
33267;BMP180;19638;49.080;11.896;2023-08-01T13:18:05;95125.00;;;22.30
33267;BMP180;19638;49.080;11.896;2023-08-01T13:22:11;95134.00;;;22.30
33267;BMP180;19638;49.080;11.896;2023-08-01T13:26:17;95145.00;;;22.40
33267;BMP180;19638;49.080;11.896;2023-08-01T13:30:20;95150.00;;;22.70
33267;BMP180;19638;49.080;11.896;2023-08-01T13:34:24;95132.00;;;22.60
33267;BMP180;19638;49.080;11.896;2023-08-01T13:38:30;95124.00;;;22.70
33267;BMP180;19638;49.080;11.896;2023-08-01T13:42:36;95116.00;;;23.60
33267;BMP180;19638;49.080;11.896;2023-08-01T13:46:40;95129.00;;;24.30
33267;BMP180;19638;49.080;11.896;2023-08-01T13:50:43;95144.00;;;24.60
33267;BMP180;19638;49.080;11.896;2023-08-01T13:54:48;95136.00;;;24.40
33267;BMP180;19638;49.080;11.896;2023-08-01T13:58:54;95132.00;;;24.20
33267;BMP180;19638;49.080;11.896;2023-08-01T14:02:59;95118.00;;;24.30
33267;BMP180;19638;49.080;11.896;2023-08-01T14:07:02;95113.00;;;24.90
33267;BMP180;19638;49.080;11.896;2023-08-01T14:11:08;95131.00;;;24.90
33267;BMP180;19638;49.080;11.896;2023-08-01T14:15:14;95136.00;;;24.50
33267;BMP180;19638;49.080;11.896;2023-08-01T14:19:20;95131.00;;;24.00
33267;BMP180;19638;49.080;11.896;2023-08-01T14:23:23;95129.00;;;23.40
33267;BMP180;19638;49.080;11.896;2023-08-01T14:27:28;95184.00;;;22.50
33267;BMP180;19638;49.080;11.896;2023-08-01T14:31:33;95163.00;;;20.80
33267;BMP180;19638;49.080;11.896;2023-08-01T14:35:36;95155.00;;;19.50
33267;BMP180;19638;49.080;11.896;2023-08-01T14:39:42;95170.00;;;18.80
33267;BMP180;19638;49.080;11.896;2023-08-01T14:43:47;95167.00;;;19.20
33267;BMP180;19638;49.080;11.896;2023-08-01T14:47:50;95167.00;;;19.80
33267;BMP180;19638;49.080;11.896;2023-08-01T14:51:54;95168.00;;;20.40
33267;BMP180;19638;49.080;11.896;2023-08-01T14:56:02;95174.00;;;21.10
33267;BMP180;19638;49.080;11.896;2023-08-01T15:00:14;95167.00;;;21.20
33267;BMP180;19638;49.080;11.896;2023-08-01T15:04:18;95169.00;;;21.50
33267;BMP180;19638;49.080;11.896;2023-08-01T15:08:21;95178.00;;;21.80
33267;BMP180;19638;49.080;11.896;2023-08-01T15:12:27;95183.00;;;22.10
33267;BMP180;19638;49.080;11.896;2023-08-01T15:16:34;95186.00;;;22.30
33267;BMP180;19638;49.080;11.896;2023-08-01T15:20:43;95198.00;;;22.60
33267;BMP180;19638;49.080;11.896;2023-08-01T15:24:47;95191.00;;;22.60
33267;BMP180;19638;49.080;11.896;2023-08-01T15:28:55;95190.00;;;22.70
33267;BMP180;19638;49.080;11.896;2023-08-01T15:33:00;95209.00;;;22.70
33267;BMP180;19638;49.080;11.896;2023-08-01T15:37:07;95184.00;;;22.30
33267;BMP180;19638;49.080;11.896;2023-08-01T15:41:11;95193.00;;;22.10
33267;BMP180;19638;49.080;11.896;2023-08-01T15:45:16;95202.00;;;21.80
33267;BMP180;19638;49.080;11.896;2023-08-01T15:49:21;95189.00;;;21.60
33267;BMP180;19638;49.080;11.896;2023-08-01T15:53:25;95216.00;;;21.40
33267;BMP180;19638;49.080;11.896;2023-08-01T15:57:31;95219.00;;;21.40
33267;BMP180;19638;49.080;11.896;2023-08-01T16:01:34;95208.00;;;21.40
33267;BMP180;19638;49.080;11.896;2023-08-01T16:05:39;95201.00;;;21.20
33267;BMP180;19638;49.080;11.896;2023-08-01T16:09:43;95202.00;;;21.20
33267;BMP180;19638;49.080;11.896;2023-08-01T16:13:48;95204.00;;;21.70
33267;BMP180;19638;49.080;11.896;2023-08-01T16:17:51;95194.00;;;22.80
33267;BMP180;19638;49.080;11.896;2023-08-01T16:21:59;95203.00;;;23.60
33267;BMP180;19638;49.080;11.896;2023-08-01T16:26:07;95201.00;;;24.10
33267;BMP180;19638;49.080;11.896;2023-08-01T16:30:11;95193.00;;;24.10
33267;BMP180;19638;49.080;11.896;2023-08-01T16:34:15;95193.00;;;24.30
33267;BMP180;19638;49.080;11.896;2023-08-01T16:38:24;95189.00;;;24.20
33267;BMP180;19638;49.080;11.896;2023-08-01T16:42:30;95190.00;;;24.20
33267;BMP180;19638;49.080;11.896;2023-08-01T16:46:34;95196.00;;;24.30
33267;BMP180;19638;49.080;11.896;2023-08-01T16:50:37;95213.00;;;23.70
33267;BMP180;19638;49.080;11.896;2023-08-01T16:54:42;95209.00;;;23.20
33267;BMP180;19638;49.080;11.896;2023-08-01T16:58:45;95213.00;;;22.90
33267;BMP180;19638;49.080;11.896;2023-08-01T17:02:49;95219.00;;;23.30
33267;BMP180;19638;49.080;11.896;2023-08-01T17:06:57;95222.00;;;24.20
33267;BMP180;19638;49.080;11.896;2023-08-01T17:11:05;95229.00;;;24.60
33267;BMP180;19638;49.080;11.896;2023-08-01T17:15:12;95228.00;;;24.50
33267;BMP180;19638;49.080;11.896;2023-08-01T17:19:19;95227.00;;;24.70
33267;BMP180;19638;49.080;11.896;2023-08-01T17:23:22;95231.00;;;25.20
33267;BMP180;19638;49.080;11.896;2023-08-01T17:27:27;95232.00;;;26.00
33267;BMP180;19638;49.080;11.896;2023-08-01T17:31:36;95231.00;;;26.80
33267;BMP180;19638;49.080;11.896;2023-08-01T17:35:41;95230.00;;;27.30
33267;BMP180;19638;49.080;11.896;2023-08-01T17:39:46;95239.00;;;27.60
33267;BMP180;19638;49.080;11.896;2023-08-01T17:43:53;95245.00;;;27.40
33267;BMP180;19638;49.080;11.896;2023-08-01T17:47:57;95246.00;;;27.30
33267;BMP180;19638;49.080;11.896;2023-08-01T17:52:02;95258.00;;;26.90
33267;BMP180;19638;49.080;11.896;2023-08-01T17:56:10;95271.00;;;26.70
33267;BMP180;19638;49.080;11.896;2023-08-01T18:00:17;95267.00;;;26.50
33267;BMP180;19638;49.080;11.896;2023-08-01T18:04:21;95276.00;;;25.70
33267;BMP180;19638;49.080;11.896;2023-08-01T18:08:24;95280.00;;;24.70
33267;BMP180;19638;49.080;11.896;2023-08-01T18:12:29;95278.00;;;23.80
33267;BMP180;19638;49.080;11.896;2023-08-01T18:16:42;95288.00;;;23.00
33267;BMP180;19638;49.080;11.896;2023-08-01T18:20:57;95293.00;;;22.40
33267;BMP180;19638;49.080;11.896;2023-08-01T18:25:00;95293.00;;;21.90
33267;BMP180;19638;49.080;11.896;2023-08-01T18:29:05;95307.00;;;21.40
33267;BMP180;19638;49.080;11.896;2023-08-01T18:33:09;95310.00;;;21.10
33267;BMP180;19638;49.080;11.896;2023-08-01T18:37:12;95307.00;;;20.70
33267;BMP180;19638;49.080;11.896;2023-08-01T18:41:20;95312.00;;;20.40
33267;BMP180;19638;49.080;11.896;2023-08-01T18:45:23;95327.00;;;20.20
33267;BMP180;19638;49.080;11.896;2023-08-01T18:49:28;95327.00;;;19.90
33267;BMP180;19638;49.080;11.896;2023-08-01T18:53:32;95338.00;;;19.60
33267;BMP180;19638;49.080;11.896;2023-08-01T18:57:44;95340.00;;;19.10
33267;BMP180;19638;49.080;11.896;2023-08-01T19:01:48;95344.00;;;18.70
33267;BMP180;19638;49.080;11.896;2023-08-01T19:05:53;95356.00;;;18.40
33267;BMP180;19638;49.080;11.896;2023-08-01T19:09:57;95352.00;;;18.10
33267;BMP180;19638;49.080;11.896;2023-08-01T19:14:00;95359.00;;;17.80
33267;BMP180;19638;49.080;11.896;2023-08-01T19:18:03;95368.00;;;17.70
33267;BMP180;19638;49.080;11.896;2023-08-01T19:22:07;95371.00;;;17.50
33267;BMP180;19638;49.080;11.896;2023-08-01T19:26:12;95378.00;;;17.30
33267;BMP180;19638;49.080;11.896;2023-08-01T19:30:15;95382.00;;;17.00
33267;BMP180;19638;49.080;11.896;2023-08-01T19:34:21;95397.00;;;16.80
33267;BMP180;19638;49.080;11.896;2023-08-01T19:38:26;95393.00;;;16.60
33267;BMP180;19638;49.080;11.896;2023-08-01T19:42:29;95390.00;;;16.50
33267;BMP180;19638;49.080;11.896;2023-08-01T19:46:32;95398.00;;;16.30
33267;BMP180;19638;49.080;11.896;2023-08-01T19:50:38;95402.00;;;16.20
33267;BMP180;19638;49.080;11.896;2023-08-01T19:54:43;95397.00;;;16.10
33267;BMP180;19638;49.080;11.896;2023-08-01T19:58:46;95407.00;;;15.90
33267;BMP180;19638;49.080;11.896;2023-08-01T20:02:50;95436.00;;;15.90
33267;BMP180;19638;49.080;11.896;2023-08-01T20:06:53;95463.00;;;16.20
33267;BMP180;19638;49.080;11.896;2023-08-01T20:10:58;95452.00;;;16.50
33267;BMP180;19638;49.080;11.896;2023-08-01T20:15:03;95468.00;;;16.70
33267;BMP180;19638;49.080;11.896;2023-08-01T20:19:08;95473.00;;;16.80
33267;BMP180;19638;49.080;11.896;2023-08-01T20:23:11;95468.00;;;16.80
33267;BMP180;19638;49.080;11.896;2023-08-01T20:27:18;95475.00;;;16.90
33267;BMP180;19638;49.080;11.896;2023-08-01T20:31:23;95470.00;;;16.90
33267;BMP180;19638;49.080;11.896;2023-08-01T20:35:26;95467.00;;;17.00
33267;BMP180;19638;49.080;11.896;2023-08-01T20:39:32;95462.00;;;17.00
33267;BMP180;19638;49.080;11.896;2023-08-01T20:43:40;95468.00;;;17.00
33267;BMP180;19638;49.080;11.896;2023-08-01T20:47:43;95472.00;;;17.00
33267;BMP180;19638;49.080;11.896;2023-08-01T20:51:46;95481.00;;;16.90
33267;BMP180;19638;49.080;11.896;2023-08-01T20:55:53;95485.00;;;16.80
33267;BMP180;19638;49.080;11.896;2023-08-01T20:59:58;95485.00;;;16.70
33267;BMP180;19638;49.080;11.896;2023-08-01T21:04:04;95491.00;;;16.60
33267;BMP180;19638;49.080;11.896;2023-08-01T21:08:07;95492.00;;;16.40
33267;BMP180;19638;49.080;11.896;2023-08-01T21:12:12;95495.00;;;16.30
33267;BMP180;19638;49.080;11.896;2023-08-01T21:16:21;95488.00;;;16.10
33267;BMP180;19638;49.080;11.896;2023-08-01T21:20:24;95500.00;;;16.00
33267;BMP180;19638;49.080;11.896;2023-08-01T21:24:29;95500.00;;;15.80
33267;BMP180;19638;49.080;11.896;2023-08-01T21:28:35;95505.00;;;15.70
33267;BMP180;19638;49.080;11.896;2023-08-01T21:32:41;95505.00;;;15.70
33267;BMP180;19638;49.080;11.896;2023-08-01T21:36:44;95526.00;;;15.70
33267;BMP180;19638;49.080;11.896;2023-08-01T21:40:48;95524.00;;;15.70
33267;BMP180;19638;49.080;11.896;2023-08-01T21:44:52;95533.00;;;15.60
33267;BMP180;19638;49.080;11.896;2023-08-01T21:48:58;95541.00;;;15.60
33267;BMP180;19638;49.080;11.896;2023-08-01T21:53:01;95545.00;;;15.70
33267;BMP180;19638;49.080;11.896;2023-08-01T21:57:04;95539.00;;;15.70
33267;BMP180;19638;49.080;11.896;2023-08-01T22:01:08;95532.00;;;15.60
33267;BMP180;19638;49.080;11.896;2023-08-01T22:05:13;95531.00;;;15.60
33267;BMP180;19638;49.080;11.896;2023-08-01T22:09:18;95529.00;;;15.50
33267;BMP180;19638;49.080;11.896;2023-08-01T22:13:22;95526.00;;;15.50
33267;BMP180;19638;49.080;11.896;2023-08-01T22:17:28;95527.00;;;15.60
33267;BMP180;19638;49.080;11.896;2023-08-01T22:21:32;95524.00;;;15.70
33267;BMP180;19638;49.080;11.896;2023-08-01T22:25:40;95531.00;;;15.80
33267;BMP180;19638;49.080;11.896;2023-08-01T22:29:43;95525.00;;;15.90
33267;BMP180;19638;49.080;11.896;2023-08-01T22:33:50;95528.00;;;15.90
33267;BMP180;19638;49.080;11.896;2023-08-01T22:37:55;95524.00;;;15.90
33267;BMP180;19638;49.080;11.896;2023-08-01T22:41:58;95520.00;;;15.80
33267;BMP180;19638;49.080;11.896;2023-08-01T22:46:02;95530.00;;;15.70
33267;BMP180;19638;49.080;11.896;2023-08-01T22:50:11;95532.00;;;15.70
33267;BMP180;19638;49.080;11.896;2023-08-01T22:54:27;95541.00;;;15.60
33267;BMP180;19638;49.080;11.896;2023-08-01T22:58:33;95540.00;;;15.60
33267;BMP180;19638;49.080;11.896;2023-08-01T23:02:36;95543.00;;;15.60
33267;BMP180;19638;49.080;11.896;2023-08-01T23:06:40;95550.00;;;15.70
33267;BMP180;19638;49.080;11.896;2023-08-01T23:10:45;95548.00;;;15.70